createdAt,value
2023-05-05T00:02:09.701Z,5.10
2023-05-05T00:04:37.005Z,8.00
2023-05-05T00:07:04.414Z,7.20
2023-05-05T00:09:31.832Z,6.90
2023-05-05T00:12:05.534Z,7.70
2023-05-05T00:14:33.471Z,7.50
2023-05-05T00:17:01.006Z,6.70
2023-05-05T00:19:28.269Z,13.80
2023-05-05T00:21:55.891Z,8.90
2023-05-05T00:24:23.714Z,15.40
2023-05-05T00:26:51.424Z,12.00
2023-05-05T00:29:19.060Z,12.60
2023-05-05T00:31:46.596Z,5.10
2023-05-05T00:34:13.820Z,5.40
2023-05-05T00:36:41.665Z,6.70
2023-05-05T00:39:08.996Z,11.30
2023-05-05T00:41:37.016Z,8.20
2023-05-05T00:44:04.680Z,6.90
2023-05-05T00:46:32.139Z,14.00
2023-05-05T00:49:01.026Z,13.30
2023-05-05T00:51:28.454Z,9.70
2023-05-05T00:53:55.817Z,5.60
2023-05-05T00:56:24.772Z,8.10
2023-05-05T00:58:52.381Z,8.70
2023-05-05T01:01:20.426Z,8.80
2023-05-05T01:03:47.962Z,12.20
2023-05-05T01:06:44.230Z,9.30
2023-05-05T01:09:26.485Z,9.30
2023-05-05T01:12:02.428Z,5.50
2023-05-05T01:14:41.067Z,8.70
2023-05-05T01:17:17.230Z,7.70
2023-05-05T01:20:04.682Z,7.60
2023-05-05T01:22:38.451Z,10.50
2023-05-05T01:25:24.789Z,9.70
2023-05-05T01:28:00.041Z,10.10
2023-05-05T01:30:46.519Z,9.60
2023-05-05T01:33:15.764Z,10.90
2023-05-05T01:35:46.048Z,11.30
2023-05-05T01:38:25.198Z,11.30
2023-05-05T01:41:01.025Z,8.60
2023-05-05T01:43:29.797Z,7.40
2023-05-05T01:45:57.295Z,11.70
2023-05-05T01:48:24.790Z,9.40
2023-05-05T01:50:52.625Z,11.20
2023-05-05T01:53:19.860Z,6.30
2023-05-05T01:55:47.218Z,5.80
2023-05-05T01:58:15.011Z,8.00
2023-05-05T02:00:42.893Z,6.70
2023-05-05T02:03:11.208Z,4.60
2023-05-05T02:05:39.263Z,9.80
2023-05-05T02:08:06.767Z,12.80
2023-05-05T02:10:34.076Z,6.60
2023-05-05T02:13:02.628Z,4.30
2023-05-05T02:15:30.244Z,4.40
2023-05-05T02:17:57.698Z,7.00
2023-05-05T02:20:25.636Z,6.60
2023-05-05T02:22:54.169Z,3.70
2023-05-05T02:25:23.319Z,8.10
2023-05-05T02:27:50.500Z,8.20
2023-05-05T02:30:18.508Z,11.50
2023-05-05T02:32:53.536Z,11.70
2023-05-05T02:35:22.977Z,10.10
2023-05-05T02:38:02.880Z,6.30
2023-05-05T02:40:34.473Z,5.20
2023-05-05T02:43:06.049Z,8.10
2023-05-05T02:45:33.861Z,4.30
2023-05-05T02:48:04.660Z,7.20
2023-05-05T02:50:34.548Z,5.10
2023-05-05T02:53:11.311Z,7.60
2023-05-05T02:56:07.456Z,7.90
2023-05-05T02:58:47.793Z,8.50
2023-05-05T03:01:43.713Z,11.20
2023-05-05T03:04:15.971Z,9.10
2023-05-05T03:06:49.154Z,5.70
2023-05-05T03:09:34.312Z,7.60
2023-05-05T03:12:06.198Z,9.30
2023-05-05T03:14:41.863Z,8.90
2023-05-05T03:17:11.519Z,9.20
2023-05-05T03:19:41.868Z,15.30
2023-05-05T03:22:09.510Z,5.60
2023-05-05T03:24:37.869Z,6.20
2023-05-05T03:27:08.282Z,10.30
2023-05-05T03:29:38.198Z,15.10
2023-05-05T03:32:08.705Z,13.30
2023-05-05T03:34:38.024Z,14.20
2023-05-05T03:37:06.083Z,8.10
2023-05-05T03:39:33.521Z,9.70
2023-05-05T03:42:01.288Z,6.40
2023-05-05T03:44:31.207Z,10.50
2023-05-05T03:46:58.615Z,6.50
2023-05-05T03:49:27.002Z,9.10
2023-05-05T03:51:54.592Z,8.30
2023-05-05T03:54:21.938Z,8.60
2023-05-05T03:56:49.172Z,5.70
2023-05-05T03:59:17.464Z,9.50
2023-05-05T04:01:46.822Z,6.50
2023-05-05T04:04:18.109Z,7.00
2023-05-05T04:06:48.084Z,10.70
2023-05-05T04:09:20.634Z,7.80
2023-05-05T04:11:48.089Z,4.40
2023-05-05T04:14:15.886Z,5.90
2023-05-05T04:16:43.356Z,5.50
2023-05-05T04:19:13.321Z,9.90
2023-05-05T04:21:40.835Z,6.70
2023-05-05T04:24:08.253Z,7.80
2023-05-05T04:26:36.353Z,10.40
2023-05-05T04:29:03.820Z,3.70
2023-05-05T04:31:32.395Z,4.60
2023-05-05T04:34:00.082Z,9.70
2023-05-05T04:36:28.586Z,5.30
2023-05-05T04:38:56.948Z,5.10
2023-05-05T04:41:30.020Z,6.20
2023-05-05T04:43:58.054Z,5.40
2023-05-05T04:46:26.076Z,7.60
2023-05-05T04:48:53.661Z,3.20
2023-05-05T04:51:21.076Z,6.90
2023-05-05T04:53:48.498Z,8.80
2023-05-05T04:56:16.055Z,5.00
2023-05-05T04:58:43.542Z,9.60
2023-05-05T05:01:10.966Z,5.60
2023-05-05T05:03:39.998Z,3.40
2023-05-05T05:06:08.550Z,9.70
2023-05-05T05:08:36.745Z,4.10
2023-05-05T05:11:04.119Z,5.80
2023-05-05T05:13:31.689Z,5.50
2023-05-05T05:15:58.960Z,5.40
2023-05-05T05:18:26.520Z,3.90
2023-05-05T05:20:54.707Z,5.50
2023-05-05T05:23:22.064Z,5.00
2023-05-05T05:25:49.409Z,5.50
2023-05-05T05:28:17.509Z,3.30
2023-05-05T05:30:49.038Z,7.80
2023-05-05T05:33:16.577Z,4.10
2023-05-05T05:35:44.546Z,3.00
2023-05-05T05:38:12.452Z,6.40
2023-05-05T05:40:39.821Z,4.70
2023-05-05T05:43:07.121Z,5.10
2023-05-05T05:45:34.533Z,11.90
2023-05-05T05:48:02.666Z,3.30
2023-05-05T05:50:30.584Z,2.80
2023-05-05T05:52:58.897Z,5.90
2023-05-05T05:55:26.649Z,4.20
2023-05-05T05:57:54.465Z,10.00
2023-05-05T06:00:22.296Z,6.20
2023-05-05T06:02:53.129Z,3.00
2023-05-05T06:05:23.039Z,5.30
2023-05-05T06:07:51.010Z,5.80
2023-05-05T06:10:28.003Z,6.60
2023-05-05T06:13:01.300Z,4.50
2023-05-05T06:15:29.426Z,6.10
2023-05-05T06:17:57.673Z,3.50
2023-05-05T06:20:25.332Z,6.80
2023-05-05T06:22:52.798Z,3.80
2023-05-05T06:25:20.518Z,5.50
2023-05-05T06:27:49.186Z,10.10
2023-05-05T06:30:17.438Z,4.40
2023-05-05T06:32:44.925Z,11.30
2023-05-05T06:35:12.502Z,5.10
2023-05-05T06:37:40.154Z,4.60
2023-05-05T06:40:09.014Z,5.30
2023-05-05T06:42:36.801Z,5.10
2023-05-05T06:45:05.409Z,6.60
2023-05-05T06:47:32.727Z,9.30
2023-05-05T06:50:00.268Z,2.70
2023-05-05T06:52:27.627Z,7.80
2023-05-05T06:54:54.840Z,2.70
2023-05-05T06:57:22.165Z,7.40
2023-05-05T06:59:49.693Z,3.90
2023-05-05T07:02:17.150Z,2.60
2023-05-05T07:04:44.338Z,3.50
2023-05-05T07:07:12.049Z,3.20
2023-05-05T07:09:39.498Z,6.70
2023-05-05T07:12:07.423Z,2.30
2023-05-05T07:14:34.727Z,31.20
2023-05-05T07:17:02.272Z,24.00
2023-05-05T07:19:29.646Z,39.70
2023-05-05T07:21:57.166Z,22.90
2023-05-05T07:24:24.674Z,15.30
2023-05-05T07:26:52.067Z,10.30
2023-05-05T07:29:19.388Z,8.00
2023-05-05T07:31:46.764Z,9.90
2023-05-05T07:34:14.144Z,11.40
2023-05-05T07:36:41.932Z,8.40
2023-05-05T07:39:09.544Z,10.10
2023-05-05T07:41:37.258Z,8.40
2023-05-05T07:44:04.853Z,12.20
2023-05-05T07:46:32.233Z,7.10
2023-05-05T07:48:59.724Z,6.30
2023-05-05T07:51:27.847Z,14.50
2023-05-05T07:53:55.963Z,7.10
2023-05-05T07:56:23.369Z,17.40
2023-05-05T07:58:51.081Z,14.80
2023-05-05T08:01:18.641Z,10.90
2023-05-05T08:03:46.416Z,14.90
2023-05-05T08:06:16.664Z,12.10
2023-05-05T08:08:43.905Z,7.50
2023-05-05T08:11:11.326Z,13.70
2023-05-05T08:13:39.400Z,8.50
2023-05-05T08:16:07.448Z,10.20
2023-05-05T08:18:38.146Z,12.00
2023-05-05T08:21:08.746Z,8.60
2023-05-05T08:23:36.423Z,9.40
2023-05-05T08:26:04.713Z,13.30
2023-05-05T08:28:36.696Z,10.40
2023-05-05T08:31:05.839Z,18.20
2023-05-05T08:33:33.321Z,9.20
2023-05-05T08:36:00.761Z,9.10
2023-05-05T08:38:28.524Z,294.00
2023-05-05T08:40:56.336Z,52.80
2023-05-05T08:43:24.438Z,18.70
2023-05-05T08:45:52.299Z,12.30
2023-05-05T08:48:22.955Z,9.40
2023-05-05T08:50:57.410Z,11.10
2023-05-05T08:53:36.181Z,5.90
2023-05-05T08:56:03.748Z,13.90
2023-05-05T08:58:33.678Z,9.60
2023-05-05T09:01:05.722Z,11.80
2023-05-05T09:03:33.733Z,14.50
2023-05-05T09:06:03.322Z,12.50
2023-05-05T09:08:31.051Z,12.70
2023-05-05T09:10:58.533Z,12.40
2023-05-05T09:13:25.984Z,13.20
2023-05-05T09:15:53.425Z,19.10
2023-05-05T09:18:21.153Z,10.50
2023-05-05T09:20:48.797Z,17.40
2023-05-05T09:23:20.724Z,13.40
2023-05-05T09:26:02.491Z,11.80
2023-05-05T09:28:29.884Z,14.40
2023-05-05T09:31:11.880Z,9.50
2023-05-05T09:33:43.368Z,9.30
2023-05-05T09:36:11.885Z,7.40
2023-05-05T09:38:39.426Z,6.10
2023-05-05T09:41:06.936Z,11.30
2023-05-05T09:43:50.027Z,9.90
2023-05-05T09:46:17.964Z,9.30
2023-05-05T09:48:45.413Z,4.90
2023-05-05T09:51:12.902Z,5.60
2023-05-05T09:53:41.058Z,7.10
2023-05-05T09:56:08.480Z,5.60
2023-05-05T09:58:36.002Z,3.80
2023-05-05T10:01:03.370Z,7.50
2023-05-05T10:03:30.999Z,3.30
2023-05-05T10:06:00.078Z,3.10
2023-05-05T10:08:29.739Z,3.50
2023-05-05T10:10:59.816Z,4.70
2023-05-05T10:13:27.245Z,6.20
2023-05-05T10:15:56.900Z,8.90
2023-05-05T10:18:25.936Z,19.10
2023-05-05T10:21:01.337Z,7.30
2023-05-05T10:23:39.650Z,6.70
2023-05-05T10:26:07.769Z,4.60
2023-05-05T10:28:42.378Z,5.80
2023-05-05T10:31:47.282Z,4.70
2023-05-05T10:34:25.473Z,6.50
2023-05-05T10:36:55.327Z,5.70
2023-05-05T10:39:22.808Z,7.40
2023-05-05T10:41:50.524Z,4.20
2023-05-05T10:44:17.933Z,3.70
2023-05-05T10:46:45.647Z,9.40
2023-05-05T10:49:18.050Z,6.50
2023-05-05T10:52:31.114Z,2.40
2023-05-05T10:55:15.269Z,4.60
2023-05-05T10:57:45.058Z,2.60
2023-05-05T11:00:38.607Z,5.20
2023-05-05T11:03:18.168Z,4.50
2023-05-05T11:06:04.567Z,3.40
2023-05-05T11:08:32.835Z,5.30
2023-05-05T11:11:00.850Z,6.40
2023-05-05T11:13:28.282Z,3.40
2023-05-05T11:15:56.223Z,5.00
2023-05-05T11:18:44.677Z,7.00
2023-05-05T11:21:15.946Z,1.80
2023-05-05T11:23:47.541Z,3.30
2023-05-05T11:26:15.231Z,5.10
2023-05-05T11:29:12.263Z,2.10
2023-05-05T11:31:39.875Z,4.10
2023-05-05T11:34:29.783Z,2.50
2023-05-05T11:37:04.220Z,4.90
2023-05-05T11:39:53.422Z,3.10
2023-05-05T11:42:25.981Z,2.90
2023-05-05T11:44:53.767Z,2.30
2023-05-05T11:47:21.394Z,4.10
2023-05-05T11:49:49.430Z,2.30
2023-05-05T11:52:16.943Z,1.50
2023-05-05T11:54:49.144Z,4.60
2023-05-05T11:57:21.225Z,4.30
2023-05-05T11:59:58.719Z,3.70
2023-05-05T12:02:28.007Z,4.20
2023-05-05T12:04:56.341Z,1.70
2023-05-05T12:07:26.770Z,3.40
2023-05-05T12:09:54.221Z,3.30
2023-05-05T12:12:21.771Z,1.70
2023-05-05T12:14:53.310Z,6.60
2023-05-05T12:17:23.677Z,8.00
2023-05-05T12:19:52.413Z,4.70
2023-05-05T12:22:24.715Z,2.80
2023-05-05T12:24:56.548Z,3.50
2023-05-05T12:27:28.238Z,2.50
2023-05-05T12:29:56.803Z,5.40
2023-05-05T12:32:26.083Z,2.20
2023-05-05T12:34:54.679Z,3.30
2023-05-05T12:37:22.469Z,9.50
2023-05-05T12:39:50.646Z,4.40
2023-05-05T12:42:18.186Z,3.00
2023-05-05T12:44:46.872Z,2.70
2023-05-05T12:47:14.734Z,4.90
2023-05-05T12:49:51.832Z,3.70
2023-05-05T12:52:19.506Z,5.00
2023-05-05T12:54:55.058Z,3.90
2023-05-05T12:57:23.368Z,3.50
2023-05-05T12:59:51.550Z,5.50
2023-05-05T13:02:19.481Z,1.70
2023-05-05T13:04:51.595Z,2.30
2023-05-05T13:07:20.297Z,3.00
2023-05-05T13:09:48.741Z,5.40
2023-05-05T13:12:17.838Z,3.30
2023-05-05T13:14:45.616Z,3.50
2023-05-05T13:17:13.672Z,2.70
2023-05-05T13:19:46.745Z,2.60
2023-05-05T13:22:14.371Z,3.50
2023-05-05T13:24:50.779Z,2.40
2023-05-05T13:27:19.980Z,6.10
2023-05-05T13:29:47.835Z,4.00
2023-05-05T13:32:15.536Z,3.30
2023-05-05T13:34:44.328Z,8.90
2023-05-05T13:37:11.805Z,3.80
2023-05-05T13:39:39.250Z,2.20
2023-05-05T13:42:06.684Z,5.10
2023-05-05T13:44:35.578Z,1.60
2023-05-05T13:47:03.254Z,4.20
2023-05-05T13:49:30.905Z,6.20
2023-05-05T13:51:58.842Z,1.80
2023-05-05T13:54:26.262Z,1.90
2023-05-05T13:56:53.602Z,2.60
2023-05-05T13:59:22.052Z,3.70
2023-05-05T14:01:49.643Z,5.50
2023-05-05T14:04:17.145Z,1.70
2023-05-05T14:06:44.646Z,1.90
2023-05-05T14:09:12.112Z,2.80
2023-05-05T14:11:39.519Z,9.70
2023-05-05T14:14:07.056Z,2.20
2023-05-05T14:16:34.590Z,1.70
2023-05-05T14:19:02.062Z,2.70
2023-05-05T14:21:29.385Z,1.40
2023-05-05T14:23:56.915Z,3.60
2023-05-05T14:26:24.445Z,2.40
2023-05-05T14:28:51.947Z,1.50
2023-05-05T14:31:19.525Z,3.00
2023-05-05T14:33:46.977Z,2.80
2023-05-05T14:36:14.518Z,1.80
2023-05-05T14:38:43.187Z,2.00
2023-05-05T14:41:11.108Z,2.50
2023-05-05T14:43:38.674Z,5.40
2023-05-05T14:46:07.522Z,1.70
2023-05-05T14:48:37.845Z,2.60
2023-05-05T14:51:07.978Z,5.90
2023-05-05T14:53:36.131Z,1.40
2023-05-05T14:56:04.275Z,1.90
2023-05-05T14:58:32.299Z,6.50
2023-05-05T15:01:00.907Z,1.60
2023-05-05T15:03:28.504Z,4.00
2023-05-05T15:05:56.416Z,2.00
2023-05-05T15:08:23.703Z,1.60
2023-05-05T15:10:51.139Z,2.00
2023-05-05T15:13:19.204Z,1.10
2023-05-05T15:15:47.428Z,2.50
2023-05-05T15:18:14.958Z,1.00
2023-05-05T15:20:42.476Z,1.40
2023-05-05T15:23:10.016Z,2.10
2023-05-05T15:25:37.609Z,1.70
2023-05-05T15:28:05.387Z,3.90
2023-05-05T15:30:32.954Z,4.40
2023-05-05T15:33:00.823Z,3.90
2023-05-05T15:35:28.311Z,1.90
2023-05-05T15:37:55.920Z,3.80
2023-05-05T15:40:23.594Z,4.60
2023-05-05T15:42:51.637Z,6.20
2023-05-05T15:45:19.465Z,4.40
2023-05-05T15:47:47.071Z,2.60
2023-05-05T15:50:14.597Z,4.00
2023-05-05T15:52:42.559Z,1.80
2023-05-05T15:55:10.774Z,4.20
2023-05-05T15:57:40.577Z,2.70
2023-05-05T16:00:10.965Z,4.50
2023-05-05T16:02:38.542Z,3.80
2023-05-05T16:05:07.111Z,3.20
2023-05-05T16:07:34.859Z,5.80
2023-05-05T16:10:02.828Z,5.40
2023-05-05T16:12:32.780Z,7.40
2023-05-05T16:15:02.780Z,9.00
2023-05-05T16:17:30.456Z,14.40
2023-05-05T16:19:58.178Z,5.40
2023-05-05T16:22:25.874Z,10.30
2023-05-05T16:24:53.273Z,11.70
2023-05-05T16:27:20.707Z,11.50
2023-05-05T16:29:48.079Z,6.40
2023-05-05T16:32:15.629Z,13.30
2023-05-05T16:34:43.143Z,8.80
2023-05-05T16:37:10.532Z,9.40
2023-05-05T16:39:40.473Z,9.10
2023-05-05T16:42:08.137Z,11.60
2023-05-05T16:44:35.459Z,33.10
2023-05-05T16:47:02.765Z,9.20
2023-05-05T16:49:30.333Z,17.80
2023-05-05T16:51:57.649Z,11.90
2023-05-05T16:54:25.080Z,17.70
2023-05-05T16:56:52.686Z,19.10
2023-05-05T16:59:20.200Z,19.30
2023-05-05T17:01:47.720Z,14.10
2023-05-05T17:04:15.367Z,12.40
2023-05-05T17:06:42.767Z,7.20
2023-05-05T17:09:10.407Z,26.00
2023-05-05T17:11:37.785Z,16.80
2023-05-05T17:14:05.198Z,14.00
2023-05-05T17:16:33.093Z,12.90
2023-05-05T17:19:00.753Z,11.10
2023-05-05T17:21:29.455Z,10.90
2023-05-05T17:23:56.784Z,6.90
2023-05-05T17:26:24.249Z,6.80
2023-05-05T17:28:52.021Z,5.80
2023-05-05T17:31:19.568Z,18.30
2023-05-05T17:33:47.029Z,9.40
2023-05-05T17:36:14.563Z,14.70
2023-05-05T17:38:42.152Z,13.90
2023-05-05T17:41:09.581Z,4.90
2023-05-05T17:43:36.954Z,5.70
2023-05-05T17:46:04.496Z,7.50
2023-05-05T17:48:31.969Z,18.50
2023-05-05T17:50:59.647Z,5.50
2023-05-05T17:53:27.578Z,7.40
2023-05-05T17:55:55.363Z,8.20
2023-05-05T17:58:22.815Z,6.20
2023-05-05T18:00:51.159Z,6.10
2023-05-05T18:03:18.996Z,10.90
2023-05-05T18:05:46.614Z,8.30
2023-05-05T18:08:14.339Z,16.10
2023-05-05T18:10:42.329Z,13.60
2023-05-05T18:13:09.872Z,11.80
2023-05-05T18:15:37.341Z,11.20
2023-05-05T18:18:05.135Z,8.90
2023-05-05T18:20:32.542Z,10.20
2023-05-05T18:23:02.351Z,10.30
2023-05-05T18:25:29.897Z,5.60
2023-05-05T18:27:57.440Z,4.90
2023-05-05T18:30:25.056Z,9.50
2023-05-05T18:32:52.689Z,12.00
2023-05-05T18:35:21.648Z,21.70
2023-05-05T18:37:50.119Z,10.10
2023-05-05T18:40:17.719Z,17.10
2023-05-05T18:42:45.135Z,8.10
2023-05-05T18:45:12.508Z,10.90
2023-05-05T18:47:39.986Z,9.80
2023-05-05T18:50:08.898Z,10.30
2023-05-05T18:52:36.326Z,5.20
2023-05-05T18:55:04.030Z,8.60
2023-05-05T18:57:31.481Z,11.50
2023-05-05T18:59:58.865Z,11.10
2023-05-05T19:02:26.155Z,6.60
2023-05-05T19:04:53.679Z,8.60
2023-05-05T19:07:34.993Z,10.20
2023-05-05T19:10:07.093Z,17.50
2023-05-05T19:12:34.731Z,11.90
2023-05-05T19:15:02.154Z,9.00
2023-05-05T19:17:29.525Z,7.50
2023-05-05T19:19:57.391Z,17.40
2023-05-05T19:22:43.068Z,10.30
2023-05-05T19:25:10.916Z,10.40
2023-05-05T19:27:38.880Z,12.30
2023-05-05T19:30:09.146Z,8.00
2023-05-05T19:32:37.755Z,13.10
2023-05-05T19:35:07.032Z,19.70
2023-05-05T19:37:34.496Z,22.10
2023-05-05T19:40:02.138Z,18.80
2023-05-05T19:42:29.624Z,17.20
2023-05-05T19:44:57.306Z,27.70
2023-05-05T19:47:24.769Z,42.30
2023-05-05T19:49:52.215Z,36.10
2023-05-05T19:52:22.842Z,37.50
2023-05-05T19:54:50.300Z,37.10
2023-05-05T19:57:17.903Z,67.30
2023-05-05T19:59:47.365Z,80.20
2023-05-05T20:02:17.284Z,96.10
2023-05-05T20:04:44.626Z,100.60
2023-05-05T20:07:12.008Z,94.80
2023-05-05T20:09:39.637Z,44.20
2023-05-05T20:12:07.504Z,38.90
2023-05-05T20:14:34.921Z,21.90
2023-05-05T20:17:02.367Z,14.20
2023-05-05T20:19:29.765Z,33.40
2023-05-05T20:21:57.360Z,39.10
2023-05-05T20:24:24.851Z,34.00
2023-05-05T20:26:52.304Z,35.50
2023-05-05T20:29:20.536Z,49.60
2023-05-05T20:31:48.663Z,31.20
2023-05-05T20:34:15.879Z,43.70
2023-05-05T20:36:43.560Z,20.40
2023-05-05T20:39:15.504Z,14.80
2023-05-05T20:41:43.088Z,10.30
2023-05-05T20:44:10.662Z,23.80
2023-05-05T20:46:38.083Z,30.90
2023-05-05T20:49:05.743Z,20.90
2023-05-05T20:51:35.246Z,9.20
2023-05-05T20:54:02.913Z,18.80
2023-05-05T20:56:30.461Z,14.50
2023-05-05T20:58:57.800Z,19.30
2023-05-05T21:01:25.242Z,30.40
2023-05-05T21:03:53.179Z,57.80
2023-05-05T21:06:20.753Z,53.60
2023-05-05T21:08:48.052Z,41.90
2023-05-05T21:11:15.366Z,38.40
2023-05-05T21:13:42.816Z,29.60
2023-05-05T21:16:10.435Z,36.60
2023-05-05T21:18:37.872Z,38.50
2023-05-05T21:21:05.349Z,31.40
2023-05-05T21:23:32.881Z,56.20
2023-05-05T21:26:00.485Z,62.90
2023-05-05T21:28:27.924Z,74.20
2023-05-05T21:31:19.788Z,62.00
2023-05-05T21:33:42.955Z,61.50
2023-05-05T21:36:10.252Z,58.90
2023-05-05T21:38:37.848Z,65.10
2023-05-05T21:41:05.408Z,67.40
2023-05-05T21:43:32.699Z,46.80
2023-05-05T21:46:04.518Z,58.00
2023-05-05T21:48:32.808Z,67.30
2023-05-05T21:51:01.238Z,84.20
2023-05-05T21:53:28.605Z,81.20
2023-05-05T21:55:56.053Z,80.00
2023-05-05T21:58:25.123Z,106.90
2023-05-05T22:00:52.764Z,144.90
2023-05-05T22:03:20.158Z,149.80
2023-05-05T22:05:47.680Z,93.50
2023-05-05T22:08:15.188Z,78.20
2023-05-05T22:10:42.704Z,48.60
2023-05-05T22:13:13.162Z,42.50
2023-05-05T22:15:46.593Z,34.30
2023-05-05T22:18:15.561Z,25.80
2023-05-05T22:20:43.625Z,19.40
2023-05-05T22:23:10.971Z,33.20
2023-05-05T22:25:38.444Z,35.00
2023-05-05T22:28:06.024Z,20.90
2023-05-05T22:30:33.516Z,23.30
2023-05-05T22:33:01.144Z,28.20
2023-05-05T22:35:28.486Z,24.70
2023-05-05T22:37:56.097Z,34.30
2023-05-05T22:40:23.676Z,37.40
2023-05-05T22:42:51.262Z,32.00
2023-05-05T22:45:19.136Z,23.30
2023-05-05T22:47:48.914Z,33.10
2023-05-05T22:50:16.324Z,14.40
2023-05-05T22:52:43.604Z,21.70
2023-05-05T22:55:12.934Z,26.80
2023-05-05T22:57:40.853Z,36.60
2023-05-05T23:00:09.231Z,36.60
2023-05-05T23:02:37.451Z,21.70
2023-05-05T23:05:05.178Z,7.80
2023-05-05T23:07:32.818Z,6.30
2023-05-05T23:10:00.278Z,7.60
2023-05-05T23:12:27.594Z,4.90
2023-05-05T23:14:54.911Z,4.10
2023-05-05T23:17:22.405Z,2.70
2023-05-05T23:19:49.802Z,7.10
2023-05-05T23:22:17.229Z,4.30
2023-05-05T23:24:44.736Z,3.10
2023-05-05T23:27:15.059Z,11.20
2023-05-05T23:29:43.041Z,8.60
2023-05-05T23:32:10.649Z,10.90
2023-05-05T23:34:38.207Z,9.20
2023-05-05T23:37:06.460Z,5.80
2023-05-05T23:39:34.744Z,3.50
2023-05-05T23:42:02.121Z,20.30
2023-05-05T23:44:30.107Z,5.70
2023-05-05T23:46:57.434Z,3.80
2023-05-05T23:49:26.515Z,4.20
2023-05-05T23:51:53.892Z,3.60
2023-05-05T23:54:21.634Z,4.30
2023-05-05T23:56:48.893Z,5.00
2023-05-05T23:59:16.401Z,3.50
